Time;durP1;ratioP1;P1;durP2;ratioP2;P2;SDS_P1;SDS_P2;PMS_P1;PMS_P2;Temp;Humidity;BMP_temperature;BMP_pressure;BME280_temperature;BME280_humidity;BME280_pressure;Samples;Min_cycle;Max_cycle;Signal;HPM_P1;HPM_P2
2022/10/02 00:02:01;;;;;;;0.60;0.10;;;13.60;72.40;;;;;;5052026;28;20477;-75
2022/10/02 00:04:34;;;;;;;0.60;0.10;;;13.60;74.50;;;;;;5052213;28;20442;-75
2022/10/02 00:07:06;;;;;;;0.60;0.10;;;13.60;74.50;;;;;;5052057;28;20504;-75
2022/10/02 00:09:42;;;;;;;0.60;0.20;;;13.60;80.00;;;;;;5058488;28;21022;-75
2022/10/02 00:12:14;;;;;;;0.60;0.10;;;13.60;84.90;;;;;;5077162;28;20462;-74
2022/10/02 00:14:44;;;;;;;0.60;0.10;;;13.60;86.90;;;;;;5056294;28;20480;-75
2022/10/02 00:17:18;;;;;;;0.60;0.20;;;13.60;90.00;;;;;;5057775;28;20524;-75
2022/10/02 00:19:46;;;;;;;0.60;0.10;;;13.60;88.40;;;;;;5056918;28;20446;-76
2022/10/02 00:22:26;;;;;;;0.60;0.10;;;13.70;87.40;;;;;;5055380;28;20470;-74
2022/10/02 00:25:03;;;;;;;0.60;0.10;;;13.70;89.20;;;;;;5055885;28;20443;-76
2022/10/02 00:27:45;;;;;;;0.60;0.30;;;13.70;89.60;;;;;;5055503;28;20811;-75
2022/10/02 00:30:16;;;;;;;28.37;7.53;;;13.70;88.20;;;;;;5056104;28;20537;-75
2022/10/02 00:32:59;;;;;;;0.60;0.10;;;13.70;83.10;;;;;;5055515;28;20528;-75
2022/10/02 00:35:46;;;;;;;0.80;0.50;;;13.70;84.90;;;;;;5055669;28;20447;-73
2022/10/02 00:38:24;;;;;;;0.60;0.20;;;13.70;82.70;;;;;;5056069;28;20473;-76
2022/10/02 00:41:46;;;;;;;0.60;0.10;;;13.80;78.90;;;;;;5056397;28;20454;-74
2022/10/02 00:44:35;;;;;;;1.80;0.30;;;13.80;72.60;;;;;;5024529;28;20470;-75
2022/10/02 00:47:10;;;;;;;0.60;0.23;;;13.80;74.60;;;;;;5056584;28;20450;-75
2022/10/02 00:49:54;;;;;;;0.70;0.40;;;13.80;74.60;;;;;;5055172;28;20503;-75
2022/10/02 00:52:35;;;;;;;1.27;0.17;;;13.80;64.50;;;;;;5052250;28;20551;-75
2022/10/02 00:55:29;;;;;;;0.60;0.10;;;13.90;66.50;;;;;;5054679;28;20438;-75
2022/10/02 00:58:20;;;;;;;0.60;0.20;;;13.90;60.60;;;;;;5043973;28;20520;-75
2022/10/02 01:00:56;;;;;;;2.20;0.73;;;13.90;57.50;;;;;;5054796;28;20486;-74
2022/10/02 01:03:29;;;;;;;0.60;0.20;;;14.00;48.90;;;;;;5038109;28;20519;-75
2022/10/02 01:05:57;;;;;;;0.60;0.10;;;14.00;46.90;;;;;;5054390;28;20991;-75
2022/10/02 01:08:25;;;;;;;0.60;0.10;;;14.10;43.70;;;;;;5054050;28;20442;-76
2022/10/02 01:10:53;;;;;;;0.70;0.20;;;14.10;39.70;;;;;;5054246;28;20537;-74
2022/10/02 01:13:22;;;;;;;0.70;0.30;;;14.10;31.90;;;;;;5054063;28;20558;-76
2022/10/02 01:15:53;;;;;;;0.60;0.10;;;14.10;33.10;;;;;;5061037;28;20474;-74
2022/10/02 01:18:21;;;;;;;0.60;0.10;;;14.10;31.30;;;;;;5067234;28;20465;-74
2022/10/02 01:20:52;;;;;;;0.60;0.10;;;14.10;30.80;;;;;;5057877;28;20442;-73
2022/10/02 01:23:26;;;;;;;0.60;0.10;;;14.10;34.20;;;;;;5055183;28;20516;-74
2022/10/02 01:25:56;;;;;;;0.60;0.10;;;14.10;35.50;;;;;;5054192;28;20446;-74
2022/10/02 01:28:24;;;;;;;0.60;0.20;;;14.00;36.80;;;;;;5054216;28;20898;-75
2022/10/02 01:30:57;;;;;;;0.60;0.10;;;14.00;39.80;;;;;;5054292;28;20525;-75
2022/10/02 01:33:25;;;;;;;0.77;0.23;;;14.00;42.20;;;;;;5034359;28;20509;-76
2022/10/02 01:35:52;;;;;;;0.60;0.20;;;14.10;44.10;;;;;;5041759;28;21008;-74
2022/10/02 01:38:23;;;;;;;0.60;0.10;;;14.00;43.20;;;;;;5054147;28;20879;-75
2022/10/02 01:40:51;;;;;;;0.60;0.10;;;14.00;46.70;;;;;;5053925;28;20497;-74
2022/10/02 01:43:23;;;;;;;0.60;0.10;;;14.10;44.30;;;;;;5053584;28;20512;-75
2022/10/02 01:45:57;;;;;;;0.87;0.27;;;14.10;43.60;;;;;;5053514;28;20513;-75
2022/10/02 01:48:55;;;;;;;0.60;0.20;;;14.10;43.70;;;;;;5053810;28;20434;-75
2022/10/02 01:51:41;;;;;;;0.60;0.10;;;14.10;47.20;;;;;;5037035;28;20867;-75
2022/10/02 01:54:20;;;;;;;0.60;0.10;;;14.10;43.30;;;;;;5053223;28;20462;-75
2022/10/02 01:56:59;;;;;;;0.60;0.30;;;14.10;45.00;;;;;;5053660;28;20478;-75
2022/10/02 01:59:44;;;;;;;0.60;0.20;;;14.10;45.20;;;;;;5054270;28;20476;-75
2022/10/02 02:02:18;;;;;;;0.60;0.20;;;14.10;42.60;;;;;;5053667;28;20984;-74
2022/10/02 02:04:53;;;;;;;0.60;0.10;;;14.10;44.50;;;;;;5054602;28;20450;-74
2022/10/02 02:07:29;;;;;;;0.73;0.30;;;14.10;44.10;;;;;;5053520;28;20495;-75
2022/10/02 02:10:04;;;;;;;0.80;0.60;;;14.10;45.90;;;;;;5053535;28;20462;-75
2022/10/02 02:12:41;;;;;;;0.60;0.10;;;14.10;45.10;;;;;;5033215;28;20537;-76
2022/10/02 02:15:16;;;;;;;1.43;0.50;;;14.10;46.50;;;;;;5034114;28;20996;-76
2022/10/02 02:17:49;;;;;;;0.60;0.10;;;14.10;46.10;;;;;;5053845;28;20531;-75
2022/10/02 02:20:22;;;;;;;0.60;0.13;;;14.10;44.70;;;;;;5053058;28;20485;-76
2022/10/02 02:22:52;;;;;;;0.60;0.20;;;14.10;43.20;;;;;;5052683;28;20474;-75
2022/10/02 02:25:25;;;;;;;0.60;0.10;;;14.10;45.20;;;;;;5052565;28;20446;-75
2022/10/02 02:27:56;;;;;;;0.60;0.17;;;14.00;49.60;;;;;;5052781;28;20465;-76
2022/10/02 02:30:26;;;;;;;0.60;0.20;;;14.00;51.60;;;;;;5053068;28;20477;-75
2022/10/02 02:32:57;;;;;;;1.10;0.70;;;14.00;50.60;;;;;;5052240;28;21221;-75
2022/10/02 02:35:30;;;;;;;0.90;0.60;;;14.00;51.60;;;;;;5052663;28;20446;-75
2022/10/02 02:38:03;;;;;;;0.60;0.10;;;14.00;51.60;;;;;;5052454;28;20486;-75
2022/10/02 02:40:36;;;;;;;0.60;0.20;;;14.00;49.30;;;;;;5052331;28;20481;-76
2022/10/02 02:43:07;;;;;;;0.60;0.20;;;14.00;49.60;;;;;;5052385;28;20536;-75
2022/10/02 02:45:39;;;;;;;0.60;0.10;;;14.00;51.60;;;;;;5052320;28;20447;-75
2022/10/02 02:48:15;;;;;;;0.60;0.20;;;13.90;51.10;;;;;;5052597;28;20446;-75
2022/10/02 02:50:47;;;;;;;7.03;0.77;;;13.90;51.40;;;;;;5052799;28;20520;-74
2022/10/02 02:53:19;;;;;;;3.33;0.60;;;13.90;45.70;;;;;;5056972;28;20474;-75
2022/10/02 02:55:49;;;;;;;0.60;0.30;;;13.90;47.60;;;;;;5064154;28;20451;-75
2022/10/02 02:58:20;;;;;;;1.27;0.77;;;13.90;46.00;;;;;;5051883;28;20524;-74
2022/10/02 03:00:49;;;;;;;0.60;0.30;;;13.90;46.50;;;;;;5052031;28;20450;-75
2022/10/02 03:03:17;;;;;;;2.17;1.47;;;13.90;42.40;;;;;;5051653;28;20569;-73
2022/10/02 03:05:49;;;;;;;0.70;0.40;;;13.90;45.00;;;;;;5051898;28;20497;-73
2022/10/02 03:08:22;;;;;;;0.60;0.20;;;13.90;44.80;;;;;;5052861;28;20466;-74
2022/10/02 03:11:04;;;;;;;0.90;0.77;;;13.90;46.90;;;;;;5051962;28;20508;-74
2022/10/02 03:13:44;;;;;;;0.60;0.30;;;13.10;44.70;;;;;;5067730;22;20517;-72
2022/10/02 03:16:28;;;;;;;1.10;0.87;;;13.90;46.60;;;;;;5072605;28;20450;-72
2022/10/02 03:19:10;;;;;;;0.60;0.20;;;13.90;48.70;;;;;;5071743;28;20836;-72
2022/10/02 03:21:45;;;;;;;0.60;0.20;;;13.90;52.90;;;;;;5072217;28;20507;-72
2022/10/02 03:24:20;;;;;;;0.60;0.10;;;13.90;53.50;;;;;;5064883;28;20457;-72
2022/10/02 03:26:54;;;;;;;0.60;0.20;;;13.90;54.70;;;;;;5072287;28;20523;-72
2022/10/02 03:29:28;;;;;;;0.90;0.33;;;13.80;53.30;;;;;;5068984;28;20442;-72
2022/10/02 03:31:59;;;;;;;2.63;0.40;;;13.80;54.70;;;;;;5072060;28;20496;-72
2022/10/02 03:34:27;;;;;;;0.60;0.10;;;13.80;56.10;;;;;;5072004;28;20983;-72
2022/10/02 03:36:56;;;;;;;0.60;0.40;;;13.80;59.60;;;;;;5072144;28;20493;-72
2022/10/02 03:39:24;;;;;;;0.60;0.17;;;13.70;61.10;;;;;;5058865;28;20588;-72
2022/10/02 03:41:53;;;;;;;0.60;0.20;;;13.70;63.40;;;;;;5066575;28;20446;-72
2022/10/02 03:44:21;;;;;;;0.60;0.20;;;13.80;59.60;;;;;;5071463;28;20880;-72
2022/10/02 03:46:49;;;;;;;2.77;1.23;;;13.80;61.40;;;;;;5071805;28;20450;-72
2022/10/02 03:49:19;;;;;;;0.80;0.20;;;13.80;57.90;;;;;;5071651;28;20445;-72
2022/10/02 03:51:47;;;;;;;0.80;0.40;;;13.80;58.80;;;;;;5071831;28;20441;-72
2022/10/02 03:54:17;;;;;;;2.30;1.17;;;13.80;59.50;;;;;;5071719;28;20866;-72
2022/10/02 03:56:54;;;;;;;2.93;1.00;;;13.80;59.70;;;;;;5071674;28;20445;-72
2022/10/02 03:59:34;;;;;;;0.70;0.40;;;13.80;55.90;;;;;;5067749;28;21169;-72
2022/10/02 04:02:07;;;;;;;0.60;0.10;;;13.80;57.70;;;;;;5063768;28;20465;-72
2022/10/02 04:04:45;;;;;;;1.07;0.40;;;13.80;58.50;;;;;;5055347;28;20983;-73
2022/10/02 04:07:21;;;;;;;0.70;0.43;;;13.80;62.40;;;;;;5071695;28;20449;-73
2022/10/02 04:09:57;;;;;;;0.90;0.47;;;13.80;60.80;;;;;;5071969;28;20413;-72
2022/10/02 04:12:30;;;;;;;0.97;0.30;;;13.80;58.20;;;;;;5070547;28;20445;-73
2022/10/02 04:15:03;;;;;;;1.43;0.50;;;13.80;59.70;;;;;;5071430;28;20481;-73
2022/10/02 04:17:42;;;;;;;0.60;0.10;;;13.80;61.70;;;;;;5071519;28;20503;-73
2022/10/02 04:20:18;;;;;;;1.23;1.13;;;13.90;63.90;;;;;;5071893;28;20861;-73
2022/10/02 04:22:50;;;;;;;0.70;0.43;;;13.90;64.20;;;;;;5071247;28;20445;-73
2022/10/02 04:25:20;;;;;;;2.40;0.77;;;13.90;60.10;;;;;;5071752;28;20843;-71
2022/10/02 04:27:51;;;;;;;1.73;0.60;;;13.90;64.70;;;;;;5071904;28;20971;-72
2022/10/02 04:30:20;;;;;;;0.70;0.30;;;13.90;64.60;;;;;;5071666;28;20553;-72
2022/10/02 04:32:48;;;;;;;0.60;0.10;;;13.90;66.30;;;;;;5071016;28;20446;-72
2022/10/02 04:35:25;;;;;;;0.80;0.60;;;14.00;66.10;;;;;;5071197;28;20472;-72
2022/10/02 04:38:21;;;;;;;0.60;0.20;;;14.00;65.50;;;;;;5071784;28;20433;-73
2022/10/02 04:41:03;;;;;;;0.70;0.63;;;14.00;70.60;;;;;;5071377;28;20485;-72
2022/10/02 04:43:48;;;;;;;0.70;0.20;;;14.00;72.60;;;;;;5065576;28;20575;-72
2022/10/02 04:46:30;;;;;;;0.60;0.20;;;14.00;72.80;;;;;;5071150;28;20819;-72
2022/10/02 04:49:29;;;;;;;0.60;0.20;;;14.00;74.90;;;;;;5071542;28;20483;-72
2022/10/02 04:52:13;;;;;;;0.60;0.10;;;14.00;74.90;;;;;;5050383;28;20831;-72
2022/10/02 04:54:57;;;;;;;0.80;0.63;;;14.00;72.80;;;;;;5072454;28;20991;-73
2022/10/02 04:57:47;;;;;;;0.60;0.20;;;14.00;74.80;;;;;;5074814;28;20453;-72
2022/10/02 05:00:19;;;;;;;0.70;0.40;;;14.00;73.60;;;;;;5074437;28;20505;-72
2022/10/02 05:03:06;;;;;;;0.60;0.20;;;13.90;82.10;;;;;;5074258;28;20966;-72
2022/10/02 05:06:02;;;;;;;0.60;0.30;;;14.00;85.40;;;;;;5074696;28;20450;-72
2022/10/02 05:08:42;;;;;;;2.00;0.93;;;14.00;87.70;;;;;;5074530;28;20463;-72
2022/10/02 05:11:27;;;;;;;1.97;0.67;;;14.00;89.10;;;;;;5064273;28;20473;-72
2022/10/02 05:14:20;;;;;;;0.60;0.20;;;13.90;91.90;;;;;;5056624;28;20474;-72
2022/10/02 05:17:20;;;;;;;0.60;0.20;;;13.90;93.10;;;;;;5074476;28;20458;-72
2022/10/02 05:19:59;;;;;;;1.10;0.53;;;13.90;96.10;;;;;;5074420;28;20484;-72
2022/10/02 05:22:45;;;;;;;0.60;0.10;;;13.90;97.40;;;;;;5073899;28;20978;-72
2022/10/02 05:25:47;;;;;;;0.60;0.20;;;13.90;98.10;;;;;;5073813;28;20994;-72
2022/10/02 05:28:43;;;;;;;1.30;0.93;;;13.80;99.90;;;;;;5074466;28;20469;-72
2022/10/02 05:31:25;;;;;;;2.30;2.10;;;13.80;99.90;;;;;;5074507;28;20442;-72
2022/10/02 05:34:07;;;;;;;1.87;1.13;;;13.90;99.90;;;;;;5073758;28;20980;-71
2022/10/02 05:37:05;;;;;;;1.23;0.73;;;13.90;99.90;;;;;;5074370;28;20471;-73
2022/10/02 05:39:36;;;;;;;0.60;0.40;;;13.90;99.90;;;;;;5074262;28;20473;-71
2022/10/02 05:42:16;;;;;;;1.30;0.83;;;13.90;99.90;;;;;;5079676;28;20488;-71
2022/10/02 05:44:49;;;;;;;0.70;0.70;;;13.80;99.90;;;;;;5083316;28;20902;-72
2022/10/02 05:47:22;;;;;;;0.60;0.40;;;13.80;99.90;;;;;;5083460;28;20468;-72
2022/10/02 05:49:53;;;;;;;0.80;0.43;;;13.80;99.90;;;;;;5086044;28;20960;-72
2022/10/02 05:52:24;;;;;;;1.80;0.40;;;13.80;99.90;;;;;;5083626;28;20445;-72
2022/10/02 05:54:57;;;;;;;0.60;0.20;;;13.80;99.90;;;;;;5075747;28;20501;-73
2022/10/02 05:57:32;;;;;;;0.57;0.20;;;13.80;99.90;;;;;;5074743;28;20449;-73
2022/10/02 06:00:06;;;;;;;2.70;0.47;;;13.80;99.90;;;;;;5073849;28;20473;-72
2022/10/02 06:02:42;;;;;;;0.60;0.30;;;13.80;99.90;;;;;;5073835;28;20450;-73
2022/10/02 06:05:17;;;;;;;0.60;0.10;;;13.80;99.90;;;;;;5073753;28;20492;-72
2022/10/02 06:07:48;;;;;;;0.60;0.30;;;13.80;99.90;;;;;;5073381;28;20511;-72
2022/10/02 06:10:19;;;;;;;0.70;0.40;;;13.80;99.90;;;;;;5073152;28;20473;-72
2022/10/02 06:12:53;;;;;;;0.60;0.10;;;13.80;99.90;;;;;;5072973;28;20984;-72
2022/10/02 06:15:26;;;;;;;1.20;0.93;;;13.80;99.90;;;;;;5072784;28;20882;-72
2022/10/02 06:17:58;;;;;;;1.13;0.70;;;13.90;99.90;;;;;;5063509;28;20430;-73
2022/10/02 06:20:30;;;;;;;0.60;0.10;;;13.90;99.90;;;;;;5073032;28;20473;-74
2022/10/02 06:23:04;;;;;;;1.00;0.80;;;11.20;99.90;;;;;;5073038;28;20445;-72
2022/10/02 06:25:37;;;;;;;0.70;0.30;;;13.90;99.90;;;;;;5072934;28;20496;-72
2022/10/02 06:28:14;;;;;;;0.60;0.10;;;13.90;99.90;;;;;;5073150;28;20873;-73
2022/10/02 06:30:46;;;;;;;0.70;0.40;;;13.90;99.90;;;;;;5073036;28;20441;-72
2022/10/02 06:33:20;;;;;;;1.50;1.23;;;13.80;99.90;;;;;;5073978;28;20480;-72
2022/10/02 06:36:20;;;;;;;0.60;0.10;;;13.70;99.90;;;;;;5074406;28;20480;-72
2022/10/02 06:39:05;;;;;;;0.70;0.40;;;13.70;99.90;;;;;;5074557;28;20477;-72
2022/10/02 06:41:46;;;;;;;0.57;0.10;;;13.70;99.90;;;;;;5073197;28;20485;-72
2022/10/02 06:44:26;;;;;;;0.60;0.23;;;13.80;99.90;;;;;;5072558;28;20465;-72
2022/10/02 06:47:06;;;;;;;0.60;0.37;;;13.80;99.90;;;;;;5057940;28;20515;-73
2022/10/02 06:49:46;;;;;;;0.60;0.60;;;13.80;99.90;;;;;;5072853;28;21022;-72
2022/10/02 06:52:24;;;;;;;0.60;0.10;;;13.80;99.90;;;;;;5072286;28;20491;-72
2022/10/02 06:55:06;;;;;;;0.60;0.17;;;13.70;99.90;;;;;;5072058;28;20504;-73
2022/10/02 06:57:56;;;;;;;0.80;0.50;;;13.70;99.90;;;;;;5072408;28;20514;-72
2022/10/02 07:00:25;;;;;;;0.57;0.20;;;13.70;99.90;;;;;;5072570;28;20488;-72
2022/10/02 07:03:21;;;;;;;0.60;0.30;;;13.70;99.90;;;;;;5072318;28;20544;-73
2022/10/02 07:06:11;;;;;;;0.60;0.40;;;13.70;99.90;;;;;;5072441;28;20449;-74
2022/10/02 07:08:53;;;;;;;1.30;0.60;;;13.70;99.90;;;;;;5072205;28;20437;-73
2022/10/02 07:11:27;;;;;;;0.93;0.90;;;13.70;99.90;;;;;;5072564;28;21001;-73
2022/10/02 07:14:12;;;;;;;0.60;0.30;;;13.70;99.90;;;;;;5071783;28;20489;-73
2022/10/02 07:17:04;;;;;;;0.60;0.20;;;13.70;99.90;;;;;;5061479;28;20932;-73
2022/10/02 07:20:06;;;;;;;0.60;0.40;;;13.70;99.90;;;;;;5071618;28;21076;-72
2022/10/02 07:22:50;;;;;;;3.70;1.47;;;13.70;99.90;;;;;;5038569;28;20446;-73
2022/10/02 07:25:49;;;;;;;2.23;2.07;;;13.70;99.90;;;;;;5072093;28;20523;-72
2022/10/02 07:28:23;;;;;;;0.60;0.20;;;13.70;99.90;;;;;;5071222;28;21052;-73
2022/10/02 07:30:59;;;;;;;0.60;0.30;;;13.60;99.90;;;;;;5072136;28;20923;-73
2022/10/02 07:33:46;;;;;;;0.90;0.43;;;13.70;99.90;;;;;;5071718;28;20967;-73
2022/10/02 07:36:23;;;;;;;0.60;0.40;;;13.70;99.90;;;;;;5071856;28;20441;-74
2022/10/02 07:39:15;;;;;;;0.50;0.10;;;13.70;99.90;;;;;;5072449;28;20422;-73
2022/10/02 07:42:03;;;;;;;0.60;0.30;;;13.70;99.90;;;;;;5071997;28;20933;-73
2022/10/02 07:44:52;;;;;;;1.13;0.30;;;13.70;99.90;;;;;;5071945;28;20462;-73
2022/10/02 07:47:35;;;;;;;0.60;0.30;;;13.70;99.90;;;;;;5072181;28;20481;-73
2022/10/02 07:50:12;;;;;;;0.60;0.30;;;13.70;99.90;;;;;;5071824;28;20994;-73
2022/10/02 07:52:51;;;;;;;0.60;0.30;;;13.70;99.90;;;;;;5071257;28;20506;-73
2022/10/02 07:55:21;;;;;;;0.80;0.60;;;13.70;99.90;;;;;;5065058;28;20500;-72
2022/10/02 07:58:00;;;;;;;3.00;0.60;;;13.70;99.90;;;;;;5062810;28;20459;-73
2022/10/02 08:00:31;;;;;;;0.53;0.17;;;13.70;99.90;;;;;;5071737;28;20900;-72
2022/10/02 08:03:01;;;;;;;2.00;0.70;;;13.60;99.90;;;;;;5071454;28;20503;-72
2022/10/02 08:05:34;;;;;;;0.50;0.10;;;13.70;99.90;;;;;;5071530;28;20472;-71
2022/10/02 08:08:16;;;;;;;1.77;0.63;;;13.70;99.90;;;;;;5071892;28;20442;-73
2022/10/02 08:10:46;;;;;;;0.70;0.30;;;13.70;99.90;;;;;;5069620;28;20458;-73
2022/10/02 08:13:19;;;;;;;0.50;0.10;;;13.60;99.90;;;;;;5054271;28;20462;-73
2022/10/02 08:15:50;;;;;;;0.50;0.10;;;13.60;99.90;;;;;;5070129;28;20935;-73
2022/10/02 08:18:27;;;;;;;0.60;0.30;;;13.70;99.90;;;;;;5068782;28;20536;-73
2022/10/02 08:21:09;;;;;;;0.70;0.40;;;13.70;99.90;;;;;;5070692;28;20485;-73
2022/10/02 08:23:42;;;;;;;0.50;0.10;;;13.70;99.90;;;;;;5070981;28;20522;-72
2022/10/02 08:26:16;;;;;;;0.70;0.43;;;13.70;99.90;;;;;;5071598;28;20449;-73
2022/10/02 08:28:51;;;;;;;0.60;0.40;;;13.70;99.90;;;;;;5071627;28;20512;-73
2022/10/02 08:31:19;;;;;;;0.53;0.20;;;13.70;99.90;;;;;;5075551;28;20529;-73
2022/10/02 08:33:47;;;;;;;0.60;0.60;;;13.70;99.90;;;;;;5074613;28;20766;-73
2022/10/02 08:36:43;;;;;;;1.53;0.60;;;13.70;99.90;;;;;;5072364;28;20445;-73
2022/10/02 08:39:36;;;;;;;1.33;0.70;;;13.80;99.90;;;;;;5055172;28;20504;-73
2022/10/02 08:42:37;;;;;;;0.57;0.20;;;13.80;99.90;;;;;;5063715;28;20481;-74
2022/10/02 08:45:39;;;;;;;0.50;0.10;;;13.80;99.90;;;;;;5074778;28;20495;-73
2022/10/02 08:48:57;;;;;;;0.50;0.10;;;13.90;99.90;;;;;;5058973;28;20446;-73
2022/10/02 08:51:57;;;;;;;0.60;0.37;;;13.90;99.90;;;;;;4993336;28;20441;-73
2022/10/02 08:54:54;;;;;;;1.30;1.20;;;13.90;99.90;;;;;;5061584;28;20602;-73
2022/10/02 08:57:52;;;;;;;0.87;0.57;;;13.90;99.90;;;;;;5070799;28;20446;-72
2022/10/02 09:00:22;;;;;;;1.23;0.40;;;13.90;99.90;;;;;;5068117;28;20690;-72
2022/10/02 09:03:07;;;;;;;0.60;0.20;;;;;;;;;;5063380;28;20504;-73
2022/10/02 09:06:07;;;;;;;1.70;1.20;;;14.00;99.90;;;;;;5068488;28;20445;-72
2022/10/02 09:09:20;;;;;;;0.57;0.30;;;14.00;99.90;;;;;;5070986;28;20452;-72
2022/10/02 09:12:20;;;;;;;0.60;0.37;;;14.00;99.90;;;;;;5065108;28;20452;-71
2022/10/02 09:14:51;;;;;;;0.50;0.10;;;14.00;99.90;;;;;;5071763;28;20473;-72
2022/10/02 09:17:44;;;;;;;0.60;0.20;;;14.00;99.90;;;;;;5070100;28;20464;-72
2022/10/02 09:20:46;;;;;;;1.13;0.67;;;14.00;99.90;;;;;;5065531;28;20998;-72
2022/10/02 09:23:54;;;;;;;3.30;0.30;;;14.10;99.90;;;;;;5066749;28;20510;-72
2022/10/02 09:26:32;;;;;;;0.50;0.10;;;14.00;99.90;;;;;;5071276;28;20904;-75
2022/10/02 09:29:33;;;;;;;0.60;0.20;;;14.00;99.90;;;;;;5073197;28;20507;-73
2022/10/02 09:32:47;;;;;;;0.50;0.10;;;14.00;99.90;;;;;;5074244;28;20519;-72
2022/10/02 09:35:46;;;;;;;1.20;0.80;;;14.00;99.90;;;;;;5066509;28;20546;-72
2022/10/02 09:38:43;;;;;;;0.50;0.20;;;14.00;99.90;;;;;;5066560;28;21005;-72
2022/10/02 09:41:43;;;;;;;0.53;0.10;;;14.10;99.90;;;;;;5073498;28;20477;-73
2022/10/02 09:44:57;;;;;;;2.80;1.27;;;14.10;99.90;;;;;;5073875;28;20473;-72
2022/10/02 09:48:03;;;;;;;0.60;0.10;;;14.10;99.90;;;;;;5073260;28;20825;-73
2022/10/02 09:50:56;;;;;;;0.60;0.30;;;14.10;99.90;;;;;;5072773;28;20900;-74
2022/10/02 09:53:56;;;;;;;0.80;0.30;;;14.10;99.90;;;;;;5067048;28;20866;-73
2022/10/02 09:56:53;;;;;;;0.60;0.10;;;14.10;99.90;;;;;;5032287;28;20449;-75
2022/10/02 09:59:51;;;;;;;0.90;0.53;;;14.10;99.90;;;;;;5073539;28;20976;-71
2022/10/02 10:02:41;;;;;;;0.70;0.20;;;14.10;99.90;;;;;;5073658;28;20512;-73
2022/10/02 10:05:37;;;;;;;0.60;0.20;;;14.10;99.90;;;;;;5073946;28;20833;-73
2022/10/02 10:08:28;;;;;;;0.70;0.50;;;14.10;99.90;;;;;;5072162;28;20473;-74
2022/10/02 10:11:09;;;;;;;0.50;0.20;;;14.10;99.90;;;;;;5073284;28;20881;-71
2022/10/02 10:14:28;;;;;;;0.70;0.50;;;14.20;99.90;;;;;;5066813;28;20481;-73
2022/10/02 10:17:40;;;;;;;0.60;0.10;;;14.20;99.90;;;;;;5028254;28;20510;-74
2022/10/02 10:20:43;;;;;;;0.60;0.37;;;14.20;99.90;;;;;;5025400;28;20454;-74
2022/10/02 10:23:35;;;;;;;0.60;0.20;;;14.40;99.90;;;;;;5053034;28;20430;-72
2022/10/02 10:26:33;;;;;;;0.60;0.10;;;14.40;99.90;;;;;;5072195;28;20853;-72
2022/10/02 10:29:30;;;;;;;0.60;0.10;;;14.40;99.90;;;;;;5072571;28;20913;-72
2022/10/02 10:33:00;;;;;;;0.60;0.20;;;14.50;99.90;;;;;;5067588;28;20463;-74
2022/10/02 10:35:46;;;;;;;0.60;0.20;;;14.50;99.90;;;;;;5035857;28;20476;-73
2022/10/02 10:38:37;;;;;;;0.60;0.10;;;14.50;99.90;;;;;;5073598;28;20437;-73
2022/10/02 10:41:32;;;;;;;0.60;0.10;;;14.50;99.90;;;;;;5055633;28;20539;-74
2022/10/02 10:44:36;;;;;;;0.50;0.10;;;14.60;99.90;;;;;;5069583;28;20466;-72
2022/10/02 10:47:43;;;;;;;0.60;0.43;;;14.60;99.90;;;;;;5052352;28;20472;-74
2022/10/02 10:50:28;;;;;;;0.60;0.20;;;14.60;99.90;;;;;;5050424;28;20986;-73
2022/10/02 10:53:16;;;;;;;1.10;0.70;;;14.60;99.90;;;;;;5072325;28;20822;-73
2022/10/02 10:56:10;;;;;;;0.60;0.10;;;14.50;99.90;;;;;;5072357;28;20845;-75
2022/10/02 10:58:59;;;;;;;0.60;0.10;;;14.50;99.90;;;;;;5063088;28;20807;-72
2022/10/02 11:01:38;;;;;;;0.90;0.87;;;14.50;99.90;;;;;;5074527;28;20504;-71
2022/10/02 11:04:31;;;;;;;0.50;0.10;;;14.40;99.90;;;;;;5054481;28;20466;-72
2022/10/02 11:07:15;;;;;;;0.60;0.10;;;14.40;99.90;;;;;;5072372;28;20955;-72
2022/10/02 11:10:06;;;;;;;0.70;0.20;;;14.50;99.90;;;;;;5073717;28;20453;-71
2022/10/02 11:13:01;;;;;;;0.60;0.30;;;14.40;99.90;;;;;;5057057;28;20441;-70
2022/10/02 11:15:58;;;;;;;0.60;0.10;;;14.40;99.90;;;;;;5073122;28;20474;-71
2022/10/02 11:18:46;;;;;;;0.60;0.30;;;14.40;99.90;;;;;;5052044;28;20519;-72
2022/10/02 11:21:50;;;;;;;0.60;0.20;;;14.30;99.90;;;;;;5058108;28;20480;-71
2022/10/02 11:24:47;;;;;;;0.60;0.20;;;14.40;99.90;;;;;;5058870;28;20519;-72
2022/10/02 11:27:42;;;;;;;0.60;0.10;;;14.40;99.90;;;;;;5064011;28;20496;-73
2022/10/02 11:30:21;;;;;;;0.60;0.10;;;14.50;99.90;;;;;;5064927;28;20453;-71
2022/10/02 11:33:09;;;;;;;3.00;0.57;;;;;;;;;;5071651;28;20851;-71
2022/10/02 11:35:48;;;;;;;0.60;0.10;;;14.50;99.90;;;;;;5071097;28;20468;-72
2022/10/02 11:38:54;;;;;;;0.53;0.30;;;14.50;99.90;;;;;;5058812;28;20457;-71
2022/10/02 11:41:48;;;;;;;0.53;0.10;;;14.50;99.90;;;;;;5064825;28;20529;-71
2022/10/02 11:44:34;;;;;;;0.60;0.33;;;14.50;99.90;;;;;;5064263;28;20461;-72
2022/10/02 11:47:33;;;;;;;0.90;0.50;;;14.40;99.90;;;;;;5071816;28;20479;-70
2022/10/02 11:50:43;;;;;;;0.60;0.10;;;14.30;99.90;;;;;;5068334;28;20484;-72
2022/10/02 11:53:48;;;;;;;0.60;0.10;;;14.30;99.90;;;;;;5051463;28;20508;-71
2022/10/02 11:56:39;;;;;;;0.57;0.17;;;14.30;99.90;;;;;;5057908;28;20460;-72
2022/10/02 11:59:29;;;;;;;0.60;0.30;;;14.30;99.90;;;;;;5068605;28;20503;-72
2022/10/02 12:02:04;;;;;;;0.53;0.10;;;14.40;99.90;;;;;;5071530;28;20509;-72
2022/10/02 12:04:43;;;;;;;0.60;0.10;;;14.40;99.90;;;;;;5073072;28;20549;-71
2022/10/02 12:07:22;;;;;;;0.60;0.10;;;14.30;99.90;;;;;;5067589;28;20464;-71
2022/10/02 12:10:05;;;;;;;0.60;0.23;;;14.40;99.90;;;;;;5075434;28;20445;-72
2022/10/02 12:12:47;;;;;;;0.50;0.10;;;14.40;99.90;;;;;;5070231;28;20438;-71
2022/10/02 12:15:26;;;;;;;0.60;0.10;;;14.40;99.90;;;;;;5075200;28;20534;-72
2022/10/02 12:18:25;;;;;;;0.60;0.10;;;14.50;99.90;;;;;;5071668;28;20483;-74
2022/10/02 12:27:35;;;;;;;0.80;0.40;;;14.60;99.90;;;;;;5026256;28;20449;-72
2022/10/02 12:30:09;;;;;;;0.50;0.20;;;14.60;99.90;;;;;;5074376;28;21182;-72
2022/10/02 12:32:55;;;;;;;0.60;0.10;;;14.50;99.90;;;;;;5060636;28;20430;-72
2022/10/02 12:35:36;;;;;;;0.60;0.30;;;14.60;99.90;;;;;;5075559;28;20523;-73
2022/10/02 12:38:18;;;;;;;0.60;0.20;;;14.60;99.90;;;;;;5075659;28;20446;-72
2022/10/02 12:40:53;;;;;;;0.60;0.20;;;14.60;99.90;;;;;;5073015;28;20445;-72
2022/10/02 12:43:53;;;;;;;0.60;0.10;;;14.60;99.90;;;;;;5074722;28;20480;-71
2022/10/02 12:46:56;;;;;;;0.50;0.10;;;14.60;99.90;;;;;;5074323;28;20460;-72
2022/10/02 12:49:34;;;;;;;0.60;0.10;;;14.70;99.90;;;;;;5075023;28;20481;-72
2022/10/02 12:52:22;;;;;;;0.60;0.10;;;14.60;99.90;;;;;;5074024;28;20559;-71
2022/10/02 12:55:26;;;;;;;0.50;0.10;;;14.70;99.90;;;;;;5074161;28;20987;-71
2022/10/02 12:58:11;;;;;;;0.60;0.20;;;14.70;99.90;;;;;;5037590;28;20441;-70
2022/10/02 13:01:02;;;;;;;0.60;0.10;;;14.70;99.90;;;;;;5074415;28;20499;-71
2022/10/02 13:03:54;;;;;;;1.60;0.77;;;14.80;99.90;;;;;;5073111;28;20992;-71
2022/10/02 13:07:00;;;;;;;2.00;1.23;;;14.80;99.90;;;;;;5074165;28;20453;-71
2022/10/02 13:09:44;;;;;;;0.60;0.10;;;14.80;99.90;;;;;;5073853;28;20449;-71
2022/10/02 13:12:31;;;;;;;0.60;0.10;;;14.70;99.90;;;;;;5072266;28;20446;-71
2022/10/02 13:15:23;;;;;;;0.60;0.10;;;14.70;99.90;;;;;;5072116;28;20924;-71
2022/10/02 13:17:58;;;;;;;0.60;0.10;;;14.70;99.90;;;;;;5073337;28;20450;-71
2022/10/02 13:20:37;;;;;;;0.60;0.10;;;14.80;99.90;;;;;;5073071;28;20507;-71
2022/10/02 13:23:20;;;;;;;0.70;0.40;;;14.90;99.90;;;;;;5073790;28;20505;-73
2022/10/02 13:26:02;;;;;;;0.60;0.20;;;14.90;99.90;;;;;;5083177;28;20442;-72
2022/10/02 13:29:03;;;;;;;0.60;0.10;;;14.90;99.90;;;;;;5080741;28;20546;-71
2022/10/02 13:31:43;;;;;;;0.60;0.10;;;15.00;99.90;;;;;;5081582;28;20489;-71
2022/10/02 13:34:29;;;;;;;0.60;0.10;;;15.00;99.90;;;;;;5076750;28;20453;-71
2022/10/02 13:37:18;;;;;;;0.60;0.10;;;15.00;99.90;;;;;;5082779;28;20468;-72
2022/10/02 13:40:11;;;;;;;0.90;0.40;;;15.00;99.90;;;;;;5079881;28;20487;-71
2022/10/02 13:42:51;;;;;;;0.70;0.40;;;15.00;99.90;;;;;;5074204;28;20511;-72
2022/10/02 13:45:28;;;;;;;0.60;0.20;;;15.00;99.90;;;;;;5074642;28;20582;-72
2022/10/02 13:48:06;;;;;;;0.60;0.10;;;15.00;99.90;;;;;;5075366;28;20485;-71
2022/10/02 13:50:46;;;;;;;0.60;0.10;;;15.00;99.90;;;;;;5076590;28;20507;-71
2022/10/02 13:53:41;;;;;;;0.70;0.37;;;15.10;99.90;;;;;;5074714;28;20445;-72
2022/10/02 13:56:18;;;;;;;0.97;0.30;;;15.10;99.90;;;;;;5073767;28;20449;-71
2022/10/02 13:59:06;;;;;;;0.60;0.10;;;15.10;99.90;;;;;;5073767;28;20944;-72
2022/10/02 14:01:46;;;;;;;0.60;0.10;;;15.10;99.90;;;;;;5073944;28;20474;-72
2022/10/02 14:04:28;;;;;;;0.60;0.10;;;15.10;96.60;;;;;;5071072;28;20484;-70
2022/10/02 14:07:08;;;;;;;0.60;0.10;;;15.10;95.90;;;;;;5063400;28;20473;-72
2022/10/02 14:09:51;;;;;;;0.60;0.10;;;15.20;97.10;;;;;;5072289;28;20987;-71
2022/10/02 14:12:37;;;;;;;0.70;0.23;;;15.30;96.20;;;;;;5072595;28;20499;-72
2022/10/02 14:15:31;;;;;;;0.60;0.10;;;15.30;93.60;;;;;;5073361;28;20473;-73